sensor_id;sensor_type;location;lat;lon;timestamp;pressure;altitude;pressure_sealevel;temperature;humidity
13013;BME280;22580;57.670;12.006;2024-03-17T00:02:25;101715.97;;;6.53;90.41
13013;BME280;22580;57.670;12.006;2024-03-17T00:04:52;101706.53;;;7.32;87.24
13013;BME280;22580;57.670;12.006;2024-03-17T00:07:18;101717.00;;;7.57;86.06
13013;BME280;22580;57.670;12.006;2024-03-17T00:09:46;101741.53;;;7.43;85.53
13013;BME280;22580;57.670;12.006;2024-03-17T00:12:13;101736.53;;;7.14;87.04
13013;BME280;22580;57.670;12.006;2024-03-17T00:14:40;101729.31;;;7.17;86.51
13013;BME280;22580;57.670;12.006;2024-03-17T00:17:08;101748.06;;;7.14;86.21
13013;BME280;22580;57.670;12.006;2024-03-17T00:19:36;101750.00;;;6.89;87.09
13013;BME280;22580;57.670;12.006;2024-03-17T00:22:02;101763.88;;;7.17;85.79
13013;BME280;22580;57.670;12.006;2024-03-17T00:24:29;101757.13;;;7.09;85.85
13013;BME280;22580;57.670;12.006;2024-03-17T00:27:01;101759.78;;;7.52;84.34
13013;BME280;22580;57.670;12.006;2024-03-17T00:29:28;101757.81;;;7.36;84.43
13013;BME280;22580;57.670;12.006;2024-03-17T00:31:55;101756.44;;;6.60;85.57
13013;BME280;22580;57.670;12.006;2024-03-17T00:34:22;101770.00;;;6.76;86.77
13013;BME280;22580;57.670;12.006;2024-03-17T00:36:48;101768.69;;;7.08;85.57
13013;BME280;22580;57.670;12.006;2024-03-17T00:39:16;101746.19;;;6.73;85.62
13013;BME280;22580;57.670;12.006;2024-03-17T00:41:44;101781.88;;;7.33;83.99
13013;BME280;22580;57.670;12.006;2024-03-17T00:44:13;101774.28;;;7.23;84.00
13013;BME280;22580;57.670;12.006;2024-03-17T00:46:38;101790.47;;;7.39;84.60
13013;BME280;22580;57.670;12.006;2024-03-17T00:49:07;101795.97;;;6.91;85.06
13013;BME280;22580;57.670;12.006;2024-03-17T00:51:34;101796.91;;;7.12;84.35
13013;BME280;22580;57.670;12.006;2024-03-17T00:54:01;101789.47;;;7.20;84.26
13013;BME280;22580;57.670;12.006;2024-03-17T00:56:27;101807.19;;;6.52;85.05
13013;BME280;22580;57.670;12.006;2024-03-17T00:58:54;101804.00;;;6.89;85.03
13013;BME280;22580;57.670;12.006;2024-03-17T01:01:22;101791.03;;;6.82;84.92
13013;BME280;22580;57.670;12.006;2024-03-17T01:03:50;101789.13;;;7.29;84.72
13013;BME280;22580;57.670;12.006;2024-03-17T01:06:16;101806.03;;;7.05;84.83
13013;BME280;22580;57.670;12.006;2024-03-17T01:08:44;101804.44;;;7.22;83.46
13013;BME280;22580;57.670;12.006;2024-03-17T01:11:14;101809.38;;;7.53;82.42
13013;BME280;22580;57.670;12.006;2024-03-17T01:13:42;101817.63;;;7.47;82.08
13013;BME280;22580;57.670;12.006;2024-03-17T01:16:08;101829.09;;;7.04;82.98
13013;BME280;22580;57.670;12.006;2024-03-17T01:18:36;101816.56;;;6.86;84.45
13013;BME280;22580;57.670;12.006;2024-03-17T01:21:03;101826.88;;;6.94;85.24
13013;BME280;22580;57.670;12.006;2024-03-17T01:23:30;101808.09;;;7.42;81.95
13013;BME280;22580;57.670;12.006;2024-03-17T01:25:55;101818.78;;;7.18;83.06
13013;BME280;22580;57.670;12.006;2024-03-17T01:28:22;101825.47;;;6.62;84.31
13013;BME280;22580;57.670;12.006;2024-03-17T01:30:48;101826.97;;;6.92;84.14
13013;BME280;22580;57.670;12.006;2024-03-17T01:33:16;101813.16;;;7.04;82.81
13013;BME280;22580;57.670;12.006;2024-03-17T01:35:44;101823.00;;;7.46;83.25
13013;BME280;22580;57.670;12.006;2024-03-17T01:38:11;101832.91;;;6.75;84.58
13013;BME280;22580;57.670;12.006;2024-03-17T01:40:37;101836.09;;;7.07;84.23
13013;BME280;22580;57.670;12.006;2024-03-17T01:43:04;101833.94;;;7.16;82.70
13013;BME280;22580;57.670;12.006;2024-03-17T01:45:31;101836.16;;;7.05;82.81
13013;BME280;22580;57.670;12.006;2024-03-17T01:47:59;101845.56;;;6.92;83.79
13013;BME280;22580;57.670;12.006;2024-03-17T01:50:28;101847.63;;;6.61;83.74
13013;BME280;22580;57.670;12.006;2024-03-17T01:53:02;101813.03;;;6.85;82.75
13013;BME280;22580;57.670;12.006;2024-03-17T01:55:30;101857.16;;;6.66;83.82
13013;BME280;22580;57.670;12.006;2024-03-17T01:57:58;101857.44;;;6.58;84.44
13013;BME280;22580;57.670;12.006;2024-03-17T02:00:24;101855.38;;;6.90;84.08
13013;BME280;22580;57.670;12.006;2024-03-17T02:02:52;101853.59;;;6.67;84.21
13013;BME280;22580;57.670;12.006;2024-03-17T02:05:18;101851.44;;;6.77;84.38
13013;BME280;22580;57.670;12.006;2024-03-17T02:07:46;101858.16;;;6.87;83.91
13013;BME280;22580;57.670;12.006;2024-03-17T02:10:14;101856.72;;;7.00;83.69
13013;BME280;22580;57.670;12.006;2024-03-17T02:12:41;101865.69;;;6.98;84.35
13013;BME280;22580;57.670;12.006;2024-03-17T02:15:07;101871.00;;;6.51;86.02
13013;BME280;22580;57.670;12.006;2024-03-17T02:17:34;101870.47;;;6.41;85.87
13013;BME280;22580;57.670;12.006;2024-03-17T02:20:00;101880.94;;;6.21;87.09
13013;BME280;22580;57.670;12.006;2024-03-17T02:22:34;101888.00;;;6.94;84.59
13013;BME280;22580;57.670;12.006;2024-03-17T02:25:00;101892.22;;;6.99;84.45
13013;BME280;22580;57.670;12.006;2024-03-17T02:27:28;101892.56;;;6.67;84.90
13013;BME280;22580;57.670;12.006;2024-03-17T02:29:54;101902.69;;;6.80;85.05
13013;BME280;22580;57.670;12.006;2024-03-17T02:32:21;101904.44;;;6.81;84.36
13013;BME280;22580;57.670;12.006;2024-03-17T02:34:48;101923.56;;;6.16;87.04
13013;BME280;22580;57.670;12.006;2024-03-17T02:37:15;101927.72;;;6.50;86.42
13013;BME280;22580;57.670;12.006;2024-03-17T02:39:43;101917.63;;;6.60;86.16
13013;BME280;22580;57.670;12.006;2024-03-17T02:42:10;101935.03;;;6.43;86.35
13013;BME280;22580;57.670;12.006;2024-03-17T02:44:38;101921.25;;;6.32;85.36
13013;BME280;22580;57.670;12.006;2024-03-17T02:47:06;101931.09;;;6.29;86.51
13013;BME280;22580;57.670;12.006;2024-03-17T02:49:34;101938.34;;;5.99;87.83
13013;BME280;22580;57.670;12.006;2024-03-17T02:52:03;101943.81;;;6.45;85.18
13013;BME280;22580;57.670;12.006;2024-03-17T02:54:31;101944.19;;;6.08;86.85
13013;BME280;22580;57.670;12.006;2024-03-17T02:56:59;101939.78;;;6.34;85.40
13013;BME280;22580;57.670;12.006;2024-03-17T02:59:26;101942.88;;;6.46;85.58
13013;BME280;22580;57.670;12.006;2024-03-17T03:01:53;101907.97;;;6.32;84.33
13013;BME280;22580;57.670;12.006;2024-03-17T03:04:21;101949.25;;;5.89;85.75
13013;BME280;22580;57.670;12.006;2024-03-17T03:06:47;101951.19;;;6.37;84.83
13013;BME280;22580;57.670;12.006;2024-03-17T03:09:14;101955.22;;;6.22;85.11
13013;BME280;22580;57.670;12.006;2024-03-17T03:11:47;101956.75;;;6.30;85.07
13013;BME280;22580;57.670;12.006;2024-03-17T03:14:15;101966.69;;;5.69;86.53
13013;BME280;22580;57.670;12.006;2024-03-17T03:16:42;101959.88;;;5.88;85.95
13013;BME280;22580;57.670;12.006;2024-03-17T03:19:09;101964.56;;;6.34;84.55
13013;BME280;22580;57.670;12.006;2024-03-17T03:21:36;101980.25;;;6.67;83.56
13013;BME280;22580;57.670;12.006;2024-03-17T03:24:03;101976.03;;;6.08;84.42
13013;BME280;22580;57.670;12.006;2024-03-17T03:26:30;101988.53;;;6.57;83.06
13013;BME280;22580;57.670;12.006;2024-03-17T03:28:57;101969.97;;;6.31;83.03
13013;BME280;22580;57.670;12.006;2024-03-17T03:31:25;101987.66;;;6.06;85.10
13013;BME280;22580;57.670;12.006;2024-03-17T03:33:52;101996.69;;;6.00;84.86
13013;BME280;22580;57.670;12.006;2024-03-17T03:36:18;101999.19;;;6.31;84.67
13013;BME280;22580;57.670;12.006;2024-03-17T03:38:47;101987.44;;;6.12;85.19
13013;BME280;22580;57.670;12.006;2024-03-17T03:41:15;101992.44;;;6.47;84.44
13013;BME280;22580;57.670;12.006;2024-03-17T03:43:42;101996.97;;;6.17;84.96
13013;BME280;22580;57.670;12.006;2024-03-17T03:46:12;101996.84;;;5.66;86.13
13013;BME280;22580;57.670;12.006;2024-03-17T03:48:41;101976.91;;;5.53;87.11
13013;BME280;22580;57.670;12.006;2024-03-17T03:51:09;102003.88;;;5.38;88.16
13013;BME280;22580;57.670;12.006;2024-03-17T03:53:36;102004.13;;;5.87;86.53
13013;BME280;22580;57.670;12.006;2024-03-17T03:56:05;102012.94;;;5.60;86.39
13013;BME280;22580;57.670;12.006;2024-03-17T03:58:31;102021.75;;;5.60;87.41
13013;BME280;22580;57.670;12.006;2024-03-17T04:00:59;102016.13;;;5.42;87.07
13013;BME280;22580;57.670;12.006;2024-03-17T04:03:27;102032.56;;;5.54;87.39
13013;BME280;22580;57.670;12.006;2024-03-17T04:06:02;102032.59;;;6.10;84.91
13013;BME280;22580;57.670;12.006;2024-03-17T04:08:30;102046.47;;;5.32;88.32
13013;BME280;22580;57.670;12.006;2024-03-17T04:10:58;102041.00;;;6.24;84.64
13013;BME280;22580;57.670;12.006;2024-03-17T04:13:26;102024.25;;;5.96;84.04
13013;BME280;22580;57.670;12.006;2024-03-17T04:15:55;102038.34;;;6.51;82.32
13013;BME280;22580;57.670;12.006;2024-03-17T04:18:22;102043.59;;;6.26;83.70
13013;BME280;22580;57.670;12.006;2024-03-17T04:20:50;102042.09;;;6.72;82.22
13013;BME280;22580;57.670;12.006;2024-03-17T04:23:20;102052.59;;;6.75;81.07
13013;BME280;22580;57.670;12.006;2024-03-17T04:25:47;102054.31;;;5.97;82.58
13013;BME280;22580;57.670;12.006;2024-03-17T04:28:13;102063.03;;;6.00;83.09
13013;BME280;22580;57.670;12.006;2024-03-17T04:30:41;102051.91;;;6.15;82.79
13013;BME280;22580;57.670;12.006;2024-03-17T04:33:08;102063.50;;;6.41;82.24
13013;BME280;22580;57.670;12.006;2024-03-17T04:35:35;102074.13;;;6.13;82.84
13013;BME280;22580;57.670;12.006;2024-03-17T04:38:03;102078.91;;;6.02;83.61
13013;BME280;22580;57.670;12.006;2024-03-17T04:40:32;102078.66;;;6.09;82.83
13013;BME280;22580;57.670;12.006;2024-03-17T04:42:59;102089.00;;;5.59;85.22
13013;BME280;22580;57.670;12.006;2024-03-17T04:45:26;102094.59;;;6.09;83.41
13013;BME280;22580;57.670;12.006;2024-03-17T04:47:53;102097.25;;;6.37;82.90
13013;BME280;22580;57.670;12.006;2024-03-17T04:50:20;102106.47;;;6.53;81.85
13013;BME280;22580;57.670;12.006;2024-03-17T04:52:49;102114.44;;;6.53;80.82
13013;BME280;22580;57.670;12.006;2024-03-17T04:55:16;102124.00;;;6.31;81.27
13013;BME280;22580;57.670;12.006;2024-03-17T04:57:45;102126.59;;;6.61;80.37
13013;BME280;22580;57.670;12.006;2024-03-17T05:00:13;102135.16;;;6.42;79.90
13013;BME280;22580;57.670;12.006;2024-03-17T05:02:43;102137.56;;;6.22;80.75
13013;BME280;22580;57.670;12.006;2024-03-17T05:05:10;102145.06;;;6.08;80.70
13013;BME280;22580;57.670;12.006;2024-03-17T05:07:37;102138.72;;;6.41;81.00
13013;BME280;22580;57.670;12.006;2024-03-17T05:10:05;102153.50;;;6.50;79.69
13013;BME280;22580;57.670;12.006;2024-03-17T05:12:32;102156.59;;;6.36;79.45
13013;BME280;22580;57.670;12.006;2024-03-17T05:15:01;102165.22;;;5.84;81.26
13013;BME280;22580;57.670;12.006;2024-03-17T05:17:29;102171.84;;;5.69;81.29
13013;BME280;22580;57.670;12.006;2024-03-17T05:19:57;102175.97;;;6.40;80.79
13013;BME280;22580;57.670;12.006;2024-03-17T05:22:25;102170.84;;;6.62;79.28
13013;BME280;22580;57.670;12.006;2024-03-17T05:24:52;102172.34;;;6.42;78.95
13013;BME280;22580;57.670;12.006;2024-03-17T05:27:20;102174.09;;;6.71;78.83
13013;BME280;22580;57.670;12.006;2024-03-17T05:29:46;102184.78;;;6.40;78.62
13013;BME280;22580;57.670;12.006;2024-03-17T05:32:18;102177.38;;;6.51;78.13
13013;BME280;22580;57.670;12.006;2024-03-17T05:34:45;102184.41;;;6.52;78.72
13013;BME280;22580;57.670;12.006;2024-03-17T05:37:12;102187.97;;;6.23;78.46
13013;BME280;22580;57.670;12.006;2024-03-17T05:39:40;102188.75;;;5.98;79.66
13013;BME280;22580;57.670;12.006;2024-03-17T05:42:07;102205.13;;;6.12;79.55
13013;BME280;22580;57.670;12.006;2024-03-17T05:44:34;102212.81;;;6.50;78.49
13013;BME280;22580;57.670;12.006;2024-03-17T05:47:17;102218.72;;;6.60;78.01
13013;BME280;22580;57.670;12.006;2024-03-17T05:49:44;102218.53;;;6.66;78.58
13013;BME280;22580;57.670;12.006;2024-03-17T05:52:12;102227.75;;;6.54;78.40
13013;BME280;22580;57.670;12.006;2024-03-17T05:54:38;102237.47;;;6.55;78.08
13013;BME280;22580;57.670;12.006;2024-03-17T05:57:05;102238.03;;;6.65;76.99
13013;BME280;22580;57.670;12.006;2024-03-17T05:59:36;102244.41;;;6.01;78.76
13013;BME280;22580;57.670;12.006;2024-03-17T06:02:03;102244.56;;;6.25;77.77
13013;BME280;22580;57.670;12.006;2024-03-17T06:04:31;102246.19;;;6.30;78.15
13013;BME280;22580;57.670;12.006;2024-03-17T06:06:59;102254.38;;;6.53;77.06
13013;BME280;22580;57.670;12.006;2024-03-17T06:09:26;102252.88;;;6.13;78.08
13013;BME280;22580;57.670;12.006;2024-03-17T06:11:53;102253.06;;;6.37;77.33
13013;BME280;22580;57.670;12.006;2024-03-17T06:14:20;102255.28;;;6.52;77.54
13013;BME280;22580;57.670;12.006;2024-03-17T06:16:46;102259.16;;;5.78;78.33
13013;BME280;22580;57.670;12.006;2024-03-17T06:19:15;102255.31;;;5.56;79.46
13013;BME280;22580;57.670;12.006;2024-03-17T06:21:43;102261.28;;;5.30;80.67
13013;BME280;22580;57.670;12.006;2024-03-17T06:24:10;102267.56;;;5.62;79.82
13013;BME280;22580;57.670;12.006;2024-03-17T06:26:37;102274.94;;;5.83;79.18
13013;BME280;22580;57.670;12.006;2024-03-17T06:29:03;102272.84;;;5.62;80.31
13013;BME280;22580;57.670;12.006;2024-03-17T06:31:30;102272.16;;;6.20;78.68
13013;BME280;22580;57.670;12.006;2024-03-17T06:33:58;102269.03;;;5.38;80.34
13013;BME280;22580;57.670;12.006;2024-03-17T06:36:25;102285.59;;;5.81;79.77
13013;BME280;22580;57.670;12.006;2024-03-17T06:38:53;102295.59;;;5.72;79.97
13013;BME280;22580;57.670;12.006;2024-03-17T06:41:20;102300.44;;;5.90;78.57
13013;BME280;22580;57.670;12.006;2024-03-17T06:43:47;102300.41;;;5.56;79.95
13013;BME280;22580;57.670;12.006;2024-03-17T06:46:14;102314.50;;;6.24;77.67
13013;BME280;22580;57.670;12.006;2024-03-17T06:48:41;102309.31;;;6.20;77.29
13013;BME280;22580;57.670;12.006;2024-03-17T06:51:08;102310.31;;;5.83;77.83
13013;BME280;22580;57.670;12.006;2024-03-17T06:53:35;102314.19;;;5.70;78.82
13013;BME280;22580;57.670;12.006;2024-03-17T06:56:04;102320.41;;;5.34;79.74
13013;BME280;22580;57.670;12.006;2024-03-17T06:58:31;102320.44;;;5.68;79.53
13013;BME280;22580;57.670;12.006;2024-03-17T07:01:00;102321.09;;;5.77;78.89
13013;BME280;22580;57.670;12.006;2024-03-17T07:03:28;102327.97;;;5.15;79.86
13013;BME280;22580;57.670;12.006;2024-03-17T07:05:56;102335.50;;;5.67;79.51
13013;BME280;22580;57.670;12.006;2024-03-17T07:08:23;102352.38;;;5.27;79.71
13013;BME280;22580;57.670;12.006;2024-03-17T07:10:57;102343.97;;;6.15;77.00
13013;BME280;22580;57.670;12.006;2024-03-17T07:13:28;102335.41;;;6.06;76.80
13013;BME280;22580;57.670;12.006;2024-03-17T07:15:55;102306.72;;;5.86;76.75
13013;BME280;22580;57.670;12.006;2024-03-17T07:18:22;102334.06;;;5.89;77.99
13013;BME280;22580;57.670;12.006;2024-03-17T07:20:49;102338.38;;;5.94;78.12
13013;BME280;22580;57.670;12.006;2024-03-17T07:23:16;102330.31;;;5.98;76.90
13013;BME280;22580;57.670;12.006;2024-03-17T07:25:51;102328.53;;;5.99;76.63
13013;BME280;22580;57.670;12.006;2024-03-17T07:28:18;102343.72;;;5.56;77.49
13013;BME280;22580;57.670;12.006;2024-03-17T07:30:48;102337.47;;;5.95;77.11
13013;BME280;22580;57.670;12.006;2024-03-17T07:33:16;102350.16;;;6.16;75.60
13013;BME280;22580;57.670;12.006;2024-03-17T07:35:51;102350.22;;;6.13;77.50
13013;BME280;22580;57.670;12.006;2024-03-17T07:38:18;102324.78;;;6.06;75.64
13013;BME280;22580;57.670;12.006;2024-03-17T07:40:56;102349.03;;;6.55;74.18
13013;BME280;22580;57.670;12.006;2024-03-17T07:43:23;102352.56;;;5.93;74.45
13013;BME280;22580;57.670;12.006;2024-03-17T07:45:59;102329.66;;;6.21;74.35
13013;BME280;22580;57.670;12.006;2024-03-17T07:48:26;102354.00;;;6.37;73.00
13013;BME280;22580;57.670;12.006;2024-03-17T07:50:54;102351.91;;;6.48;71.75
13013;BME280;22580;57.670;12.006;2024-03-17T07:53:21;102347.94;;;6.01;72.04
13013;BME280;22580;57.670;12.006;2024-03-17T07:55:57;102342.06;;;6.82;70.21
13013;BME280;22580;57.670;12.006;2024-03-17T07:58:24;102359.00;;;7.36;68.42
13013;BME280;22580;57.670;12.006;2024-03-17T08:00:51;102373.78;;;6.88;70.47
13013;BME280;22580;57.670;12.006;2024-03-17T08:03:19;102373.13;;;6.80;70.22
13013;BME280;22580;57.670;12.006;2024-03-17T08:05:51;102376.53;;;7.41;69.08
13013;BME280;22580;57.670;12.006;2024-03-17T08:08:19;102392.03;;;6.70;69.86
13013;BME280;22580;57.670;12.006;2024-03-17T08:10:46;102387.66;;;6.36;70.02
13013;BME280;22580;57.670;12.006;2024-03-17T08:13:14;102393.59;;;6.77;70.01
13013;BME280;22580;57.670;12.006;2024-03-17T08:15:41;102384.88;;;6.08;71.57
13013;BME280;22580;57.670;12.006;2024-03-17T08:18:09;102399.22;;;6.66;69.08
13013;BME280;22580;57.670;12.006;2024-03-17T08:20:38;102399.59;;;7.13;68.30
13013;BME280;22580;57.670;12.006;2024-03-17T08:23:06;102402.88;;;7.50;65.54
13013;BME280;22580;57.670;12.006;2024-03-17T08:25:33;102404.66;;;7.50;65.52
13013;BME280;22580;57.670;12.006;2024-03-17T08:28:01;102391.63;;;7.69;64.53
13013;BME280;22580;57.670;12.006;2024-03-17T08:30:28;102408.56;;;6.81;67.03
13013;BME280;22580;57.670;12.006;2024-03-17T08:32:55;102394.31;;;6.83;66.92
13013;BME280;22580;57.670;12.006;2024-03-17T08:35:22;102384.19;;;7.24;65.05
13013;BME280;22580;57.670;12.006;2024-03-17T08:37:51;102385.06;;;7.24;64.18
13013;BME280;22580;57.670;12.006;2024-03-17T08:40:21;102376.84;;;6.75;66.60
13013;BME280;22580;57.670;12.006;2024-03-17T08:42:48;102418.09;;;6.88;65.99
13013;BME280;22580;57.670;12.006;2024-03-17T08:45:15;102359.97;;;6.45;65.80
13013;BME280;22580;57.670;12.006;2024-03-17T08:47:42;102421.22;;;6.71;66.09
13013;BME280;22580;57.670;12.006;2024-03-17T08:50:09;102409.28;;;7.71;63.88
13013;BME280;22580;57.670;12.006;2024-03-17T08:52:37;102411.63;;;8.07;62.64
13013;BME280;22580;57.670;12.006;2024-03-17T08:55:08;102416.56;;;7.66;62.92
13013;BME280;22580;57.670;12.006;2024-03-17T08:57:39;102417.63;;;7.61;62.16
13013;BME280;22580;57.670;12.006;2024-03-17T09:00:07;102388.53;;;6.97;62.66
13013;BME280;22580;57.670;12.006;2024-03-17T09:02:34;102412.97;;;7.39;60.79
13013;BME280;22580;57.670;12.006;2024-03-17T09:05:01;102388.59;;;7.25;62.05
13013;BME280;22580;57.670;12.006;2024-03-17T09:07:29;102413.97;;;7.89;62.50
13013;BME280;22580;57.670;12.006;2024-03-17T09:09:56;102371.38;;;7.89;60.83
13013;BME280;22580;57.670;12.006;2024-03-17T09:12:25;102417.63;;;7.03;63.02
13013;BME280;22580;57.670;12.006;2024-03-17T09:14:52;102398.63;;;7.98;62.57
13013;BME280;22580;57.670;12.006;2024-03-17T09:17:19;102419.97;;;8.49;61.07
13013;BME280;22580;57.670;12.006;2024-03-17T09:19:46;102421.44;;;8.58;59.34
13013;BME280;22580;57.670;12.006;2024-03-17T09:22:14;102398.09;;;8.39;61.09
13013;BME280;22580;57.670;12.006;2024-03-17T09:24:41;102408.78;;;8.86;60.54
13013;BME280;22580;57.670;12.006;2024-03-17T09:27:07;102413.72;;;8.73;59.87
13013;BME280;22580;57.670;12.006;2024-03-17T09:29:36;102414.94;;;7.87;59.16
13013;BME280;22580;57.670;12.006;2024-03-17T09:32:03;102417.13;;;8.53;60.65
13013;BME280;22580;57.670;12.006;2024-03-17T09:34:30;102403.97;;;8.72;58.62
13013;BME280;22580;57.670;12.006;2024-03-17T09:36:57;102410.34;;;8.45;58.62
13013;BME280;22580;57.670;12.006;2024-03-17T09:39:24;102413.44;;;8.58;58.58
13013;BME280;22580;57.670;12.006;2024-03-17T09:41:50;102406.25;;;8.60;58.14
13013;BME280;22580;57.670;12.006;2024-03-17T09:44:18;102411.41;;;9.11;57.22
13013;BME280;22580;57.670;12.006;2024-03-17T09:46:47;102404.28;;;8.65;56.99
13013;BME280;22580;57.670;12.006;2024-03-17T09:49:15;102395.66;;;8.33;56.85
13013;BME280;22580;57.670;12.006;2024-03-17T09:51:42;102410.34;;;8.45;58.74
13013;BME280;22580;57.670;12.006;2024-03-17T09:54:17;102404.56;;;8.80;57.07
13013;BME280;22580;57.670;12.006;2024-03-17T09:56:44;102415.13;;;9.07;56.25
13013;BME280;22580;57.670;12.006;2024-03-17T09:59:11;102426.13;;;8.98;54.77
13013;BME280;22580;57.670;12.006;2024-03-17T10:01:37;102400.56;;;9.15;53.85
13013;BME280;22580;57.670;12.006;2024-03-17T10:04:06;102433.78;;;9.07;54.40
13013;BME280;22580;57.670;12.006;2024-03-17T10:06:44;102410.84;;;9.03;54.48
13013;BME280;22580;57.670;12.006;2024-03-17T10:09:15;102422.66;;;9.19;51.69
13013;BME280;22580;57.670;12.006;2024-03-17T10:11:46;102422.22;;;9.53;52.33
13013;BME280;22580;57.670;12.006;2024-03-17T10:14:17;102426.47;;;9.57;52.72
13013;BME280;22580;57.670;12.006;2024-03-17T10:16:44;102426.53;;;9.34;50.72
13013;BME280;22580;57.670;12.006;2024-03-17T10:19:13;102443.50;;;8.61;52.83
13013;BME280;22580;57.670;12.006;2024-03-17T10:21:42;102424.22;;;8.78;55.12
13013;BME280;22580;57.670;12.006;2024-03-17T10:24:10;102444.50;;;9.52;54.41
13013;BME280;22580;57.670;12.006;2024-03-17T10:26:47;102458.75;;;8.58;53.10
13013;BME280;22580;57.670;12.006;2024-03-17T10:29:20;102453.69;;;8.98;51.66
13013;BME280;22580;57.670;12.006;2024-03-17T10:31:50;102452.72;;;9.24;50.84
13013;BME280;22580;57.670;12.006;2024-03-17T10:34:19;102459.50;;;9.09;51.38
13013;BME280;22580;57.670;12.006;2024-03-17T10:36:46;102464.56;;;8.92;50.70
13013;BME280;22580;57.670;12.006;2024-03-17T10:39:24;102463.16;;;8.82;50.37
13013;BME280;22580;57.670;12.006;2024-03-17T10:42:04;102462.84;;;9.60;49.80
13013;BME280;22580;57.670;12.006;2024-03-17T10:44:32;102451.75;;;9.70;51.43
13013;BME280;22580;57.670;12.006;2024-03-17T10:47:00;102449.25;;;9.66;46.83
13013;BME280;22580;57.670;12.006;2024-03-17T10:49:30;102463.78;;;9.13;48.78
13013;BME280;22580;57.670;12.006;2024-03-17T10:51:58;102456.59;;;9.39;49.77
13013;BME280;22580;57.670;12.006;2024-03-17T10:54:26;102447.44;;;9.23;47.23
13013;BME280;22580;57.670;12.006;2024-03-17T10:56:55;102466.16;;;9.44;45.28
13013;BME280;22580;57.670;12.006;2024-03-17T10:59:28;102446.03;;;8.89;45.58
13013;BME280;22580;57.670;12.006;2024-03-17T11:02:00;102457.28;;;8.49;46.88
13013;BME280;22580;57.670;12.006;2024-03-17T11:04:30;102454.00;;;8.66;48.40
13013;BME280;22580;57.670;12.006;2024-03-17T11:06:57;102449.97;;;9.26;47.71
13013;BME280;22580;57.670;12.006;2024-03-17T11:09:26;102452.50;;;8.82;46.20
13013;BME280;22580;57.670;12.006;2024-03-17T11:11:53;102453.69;;;9.45;45.59
13013;BME280;22580;57.670;12.006;2024-03-17T11:14:20;102435.94;;;9.20;45.96
13013;BME280;22580;57.670;12.006;2024-03-17T11:16:48;102444.91;;;9.41;46.05
13013;BME280;22580;57.670;12.006;2024-03-17T11:19:16;102441.84;;;10.38;46.58
13013;BME280;22580;57.670;12.006;2024-03-17T11:21:44;102442.84;;;10.13;42.37
13013;BME280;22580;57.670;12.006;2024-03-17T11:24:19;102438.81;;;9.60;43.92
13013;BME280;22580;57.670;12.006;2024-03-17T11:26:47;102451.56;;;9.97;46.06
13013;BME280;22580;57.670;12.006;2024-03-17T11:29:28;102448.75;;;10.62;44.19
13013;BME280;22580;57.670;12.006;2024-03-17T11:31:58;102445.03;;;10.04;42.85
13013;BME280;22580;57.670;12.006;2024-03-17T11:34:35;102453.50;;;10.56;40.96
13013;BME280;22580;57.670;12.006;2024-03-17T11:37:04;102452.41;;;10.19;42.02
13013;BME280;22580;57.670;12.006;2024-03-17T11:39:53;102446.00;;;10.43;41.48
13013;BME280;22580;57.670;12.006;2024-03-17T11:42:22;102440.44;;;9.85;41.62
13013;BME280;22580;57.670;12.006;2024-03-17T11:44:57;102443.59;;;9.95;41.86
13013;BME280;22580;57.670;12.006;2024-03-17T11:47:33;102441.56;;;10.24;40.20
13013;BME280;22580;57.670;12.006;2024-03-17T11:50:02;102440.47;;;11.07;40.12
13013;BME280;22580;57.670;12.006;2024-03-17T11:52:30;102438.00;;;11.59;39.86
13013;BME280;22580;57.670;12.006;2024-03-17T11:54:57;102434.75;;;11.15;38.04
13013;BME280;22580;57.670;12.006;2024-03-17T11:57:24;102452.75;;;9.46;38.42
13013;BME280;22580;57.670;12.006;2024-03-17T11:59:52;102435.34;;;10.23;38.77
13013;BME280;22580;57.670;12.006;2024-03-17T12:02:20;102443.06;;;10.49;38.89
13013;BME280;22580;57.670;12.006;2024-03-17T12:04:47;102422.50;;;10.91;37.75
13013;BME280;22580;57.670;12.006;2024-03-17T12:07:14;102417.69;;;11.91;38.75
13013;BME280;22580;57.670;12.006;2024-03-17T12:09:44;102418.78;;;11.87;35.59
13013;BME280;22580;57.670;12.006;2024-03-17T12:12:17;102419.34;;;11.01;37.52
13013;BME280;22580;57.670;12.006;2024-03-17T12:14:45;102424.03;;;11.53;36.58
13013;BME280;22580;57.670;12.006;2024-03-17T12:17:12;102426.47;;;12.12;38.20
13013;BME280;22580;57.670;12.006;2024-03-17T12:19:40;102423.09;;;12.76;37.38
13013;BME280;22580;57.670;12.006;2024-03-17T12:22:15;102424.78;;;12.94;37.03
13013;BME280;22580;57.670;12.006;2024-03-17T12:24:44;102414.09;;;12.77;35.60
13013;BME280;22580;57.670;12.006;2024-03-17T12:27:17;102429.59;;;12.55;35.85
13013;BME280;22580;57.670;12.006;2024-03-17T12:29:43;102417.00;;;12.05;36.23
13013;BME280;22580;57.670;12.006;2024-03-17T12:32:13;102416.66;;;12.96;35.87
13013;BME280;22580;57.670;12.006;2024-03-17T12:34:40;102411.06;;;13.32;33.31
13013;BME280;22580;57.670;12.006;2024-03-17T12:37:07;102410.63;;;13.71;33.88
13013;BME280;22580;57.670;12.006;2024-03-17T12:39:35;102403.44;;;13.56;34.00
13013;BME280;22580;57.670;12.006;2024-03-17T12:42:07;102416.78;;;13.41;33.52
13013;BME280;22580;57.670;12.006;2024-03-17T12:44:35;102417.66;;;13.42;34.17
13013;BME280;22580;57.670;12.006;2024-03-17T12:47:03;102422.97;;;11.93;34.17
13013;BME280;22580;57.670;12.006;2024-03-17T12:49:31;102426.47;;;12.12;35.13
13013;BME280;22580;57.670;12.006;2024-03-17T12:51:59;102426.03;;;11.66;32.17
13013;BME280;22580;57.670;12.006;2024-03-17T12:54:27;102419.88;;;11.83;31.20